sensor_id;sensor_type;location;lat;lon;timestamp;P1;durP1;ratioP1;P2;durP2;ratioP2
4313;SDS011;2170;48.794;9.182;2023-04-21T00:01:37;24.97;;;22.40;;
4313;SDS011;2170;48.794;9.182;2023-04-21T00:04:12;25.27;;;21.83;;
4313;SDS011;2170;48.794;9.182;2023-04-21T00:06:46;26.20;;;23.50;;
4313;SDS011;2170;48.794;9.182;2023-04-21T00:09:56;25.70;;;23.00;;
4313;SDS011;2170;48.794;9.182;2023-04-21T00:12:19;24.60;;;21.80;;
4313;SDS011;2170;48.794;9.182;2023-04-21T00:14:52;24.63;;;21.90;;
4313;SDS011;2170;48.794;9.182;2023-04-21T00:17:24;25.77;;;23.10;;
4313;SDS011;2170;48.794;9.182;2023-04-21T00:20:01;24.97;;;22.37;;
4313;SDS011;2170;48.794;9.182;2023-04-21T00:22:34;27.00;;;24.10;;
4313;SDS011;2170;48.794;9.182;2023-04-21T00:25:06;26.97;;;23.00;;
4313;SDS011;2170;48.794;9.182;2023-04-21T00:27:36;26.83;;;23.93;;
4313;SDS011;2170;48.794;9.182;2023-04-21T00:30:04;28.43;;;24.37;;
4313;SDS011;2170;48.794;9.182;2023-04-21T00:32:43;26.37;;;23.63;;
4313;SDS011;2170;48.794;9.182;2023-04-21T00:35:20;26.43;;;23.40;;
4313;SDS011;2170;48.794;9.182;2023-04-21T00:38:06;26.60;;;23.73;;
4313;SDS011;2170;48.794;9.182;2023-04-21T00:40:37;25.90;;;23.20;;
4313;SDS011;2170;48.794;9.182;2023-04-21T00:43:17;26.10;;;23.50;;
4313;SDS011;2170;48.794;9.182;2023-04-21T00:45:46;25.07;;;22.47;;
4313;SDS011;2170;48.794;9.182;2023-04-21T00:48:14;24.90;;;22.20;;
4313;SDS011;2170;48.794;9.182;2023-04-21T00:50:47;24.43;;;21.70;;
4313;SDS011;2170;48.794;9.182;2023-04-21T00:53:20;26.00;;;22.50;;
4313;SDS011;2170;48.794;9.182;2023-04-21T00:55:57;25.27;;;21.40;;
4313;SDS011;2170;48.794;9.182;2023-04-21T00:58:28;25.90;;;23.07;;
4313;SDS011;2170;48.794;9.182;2023-04-21T01:01:09;26.13;;;23.33;;
4313;SDS011;2170;48.794;9.182;2023-04-21T01:03:55;25.17;;;22.43;;
4313;SDS011;2170;48.794;9.182;2023-04-21T01:06:33;23.30;;;20.97;;
4313;SDS011;2170;48.794;9.182;2023-04-21T01:15:17;24.37;;;21.83;;
4313;SDS011;2170;48.794;9.182;2023-04-21T01:17:58;25.13;;;21.90;;
4313;SDS011;2170;48.794;9.182;2023-04-21T01:20:41;23.67;;;21.13;;
4313;SDS011;2170;48.794;9.182;2023-04-21T01:26:31;24.77;;;21.23;;
4313;SDS011;2170;48.794;9.182;2023-04-21T01:32:16;24.40;;;21.80;;
4313;SDS011;2170;48.794;9.182;2023-04-21T01:35:02;25.40;;;22.87;;
4313;SDS011;2170;48.794;9.182;2023-04-21T01:37:33;23.80;;;21.03;;
4313;SDS011;2170;48.794;9.182;2023-04-21T01:40:14;27.97;;;23.37;;
4313;SDS011;2170;48.794;9.182;2023-04-21T01:42:53;25.63;;;22.03;;
4313;SDS011;2170;48.794;9.182;2023-04-21T01:45:22;25.20;;;22.50;;
4313;SDS011;2170;48.794;9.182;2023-04-21T01:47:53;24.77;;;22.03;;
4313;SDS011;2170;48.794;9.182;2023-04-21T01:50:28;25.77;;;21.80;;
4313;SDS011;2170;48.794;9.182;2023-04-21T01:58:41;24.07;;;21.50;;
4313;SDS011;2170;48.794;9.182;2023-04-21T02:01:22;23.20;;;20.80;;
4313;SDS011;2170;48.794;9.182;2023-04-21T02:03:53;24.10;;;20.67;;
4313;SDS011;2170;48.794;9.182;2023-04-21T02:06:38;24.30;;;21.53;;
4313;SDS011;2170;48.794;9.182;2023-04-21T02:15:09;22.83;;;20.43;;
4313;SDS011;2170;48.794;9.182;2023-04-21T02:17:50;22.47;;;20.30;;
4313;SDS011;2170;48.794;9.182;2023-04-21T02:20:37;25.93;;;20.90;;
4313;SDS011;2170;48.794;9.182;2023-04-21T02:23:13;22.43;;;20.00;;
4313;SDS011;2170;48.794;9.182;2023-04-21T02:26:05;24.60;;;20.60;;
4313;SDS011;2170;48.794;9.182;2023-04-21T02:28:55;22.50;;;20.10;;
4313;SDS011;2170;48.794;9.182;2023-04-21T02:34:25;22.20;;;19.10;;
4313;SDS011;2170;48.794;9.182;2023-04-21T02:36:55;21.77;;;19.50;;
4313;SDS011;2170;48.794;9.182;2023-04-21T02:39:31;22.53;;;20.13;;
4313;SDS011;2170;48.794;9.182;2023-04-21T02:42:01;21.97;;;19.13;;
4313;SDS011;2170;48.794;9.182;2023-04-21T02:44:41;22.60;;;20.20;;
4313;SDS011;2170;48.794;9.182;2023-04-21T02:47:23;20.70;;;18.53;;
4313;SDS011;2170;48.794;9.182;2023-04-21T02:50:14;22.63;;;20.00;;
4313;SDS011;2170;48.794;9.182;2023-04-21T02:52:49;25.87;;;21.20;;
4313;SDS011;2170;48.794;9.182;2023-04-21T02:55:24;25.40;;;20.43;;
4313;SDS011;2170;48.794;9.182;2023-04-21T02:57:55;22.60;;;19.70;;
4313;SDS011;2170;48.794;9.182;2023-04-21T03:00:32;24.03;;;21.50;;
4313;SDS011;2170;48.794;9.182;2023-04-21T03:03:14;27.10;;;22.00;;
4313;SDS011;2170;48.794;9.182;2023-04-21T03:05:44;25.97;;;23.17;;
4313;SDS011;2170;48.794;9.182;2023-04-21T03:08:12;25.70;;;22.97;;
4313;SDS011;2170;48.794;9.182;2023-04-21T03:10:45;26.20;;;22.90;;
4313;SDS011;2170;48.794;9.182;2023-04-21T03:13:18;25.27;;;22.47;;
4313;SDS011;2170;48.794;9.182;2023-04-21T03:15:50;23.47;;;20.97;;
4313;SDS011;2170;48.794;9.182;2023-04-21T03:18:22;22.63;;;20.23;;
4313;SDS011;2170;48.794;9.182;2023-04-21T03:20:59;23.70;;;20.17;;
4313;SDS011;2170;48.794;9.182;2023-04-21T03:23:27;25.20;;;20.73;;
4313;SDS011;2170;48.794;9.182;2023-04-21T03:25:55;22.80;;;20.47;;
4313;SDS011;2170;48.794;9.182;2023-04-21T03:28:36;24.57;;;20.60;;
4313;SDS011;2170;48.794;9.182;2023-04-21T03:31:07;21.63;;;19.33;;
4313;SDS011;2170;48.794;9.182;2023-04-21T03:33:38;23.23;;;20.73;;
4313;SDS011;2170;48.794;9.182;2023-04-21T03:36:11;23.50;;;19.50;;
4313;SDS011;2170;48.794;9.182;2023-04-21T03:38:49;24.80;;;21.10;;
4313;SDS011;2170;48.794;9.182;2023-04-21T03:41:20;23.97;;;21.07;;
4313;SDS011;2170;48.794;9.182;2023-04-21T03:43:51;27.03;;;20.73;;
4313;SDS011;2170;48.794;9.182;2023-04-21T03:46:19;23.40;;;20.83;;
4313;SDS011;2170;48.794;9.182;2023-04-21T03:48:55;23.63;;;20.63;;
4313;SDS011;2170;48.794;9.182;2023-04-21T03:51:27;23.70;;;20.80;;
4313;SDS011;2170;48.794;9.182;2023-04-21T03:54:03;24.07;;;20.10;;
4313;SDS011;2170;48.794;9.182;2023-04-21T03:56:32;23.70;;;21.17;;
4313;SDS011;2170;48.794;9.182;2023-04-21T03:59:06;25.27;;;21.53;;
4313;SDS011;2170;48.794;9.182;2023-04-21T04:01:35;27.97;;;23.43;;
4313;SDS011;2170;48.794;9.182;2023-04-21T04:04:09;28.23;;;25.10;;
4313;SDS011;2170;48.794;9.182;2023-04-21T04:06:49;25.23;;;21.13;;
4313;SDS011;2170;48.794;9.182;2023-04-21T04:09:21;26.40;;;22.50;;
4313;SDS011;2170;48.794;9.182;2023-04-21T04:11:52;23.27;;;20.70;;
4313;SDS011;2170;48.794;9.182;2023-04-21T04:14:34;24.93;;;21.13;;
4313;SDS011;2170;48.794;9.182;2023-04-21T04:17:10;24.87;;;22.20;;
4313;SDS011;2170;48.794;9.182;2023-04-21T04:19:43;25.00;;;20.67;;
4313;SDS011;2170;48.794;9.182;2023-04-21T04:22:15;27.03;;;20.33;;
4313;SDS011;2170;48.794;9.182;2023-04-21T04:24:43;25.27;;;21.90;;
4313;SDS011;2170;48.794;9.182;2023-04-21T04:27:14;25.30;;;21.27;;
4313;SDS011;2170;48.794;9.182;2023-04-21T04:29:44;25.27;;;21.97;;
4313;SDS011;2170;48.794;9.182;2023-04-21T04:32:18;28.17;;;22.70;;
4313;SDS011;2170;48.794;9.182;2023-04-21T04:34:50;25.53;;;21.10;;
4313;SDS011;2170;48.794;9.182;2023-04-21T04:37:21;23.83;;;20.60;;
4313;SDS011;2170;48.794;9.182;2023-04-21T04:39:51;25.00;;;20.93;;
4313;SDS011;2170;48.794;9.182;2023-04-21T04:42:24;24.70;;;21.00;;
4313;SDS011;2170;48.794;9.182;2023-04-21T04:44:53;26.67;;;22.83;;
4313;SDS011;2170;48.794;9.182;2023-04-21T04:47:30;23.30;;;20.80;;
4313;SDS011;2170;48.794;9.182;2023-04-21T04:49:59;25.27;;;21.80;;
4313;SDS011;2170;48.794;9.182;2023-04-21T04:52:29;25.60;;;20.33;;
4313;SDS011;2170;48.794;9.182;2023-04-21T04:54:58;28.77;;;21.70;;
4313;SDS011;2170;48.794;9.182;2023-04-21T04:57:26;24.70;;;21.57;;
4313;SDS011;2170;48.794;9.182;2023-04-21T04:59:55;26.30;;;22.37;;
4313;SDS011;2170;48.794;9.182;2023-04-21T05:02:23;26.47;;;21.33;;
4313;SDS011;2170;48.794;9.182;2023-04-21T05:04:53;27.83;;;22.70;;
4313;SDS011;2170;48.794;9.182;2023-04-21T05:07:21;25.23;;;21.30;;
4313;SDS011;2170;48.794;9.182;2023-04-21T05:09:51;29.47;;;24.00;;
4313;SDS011;2170;48.794;9.182;2023-04-21T05:12:19;27.20;;;22.77;;
4313;SDS011;2170;48.794;9.182;2023-04-21T05:14:47;28.67;;;22.50;;
4313;SDS011;2170;48.794;9.182;2023-04-21T05:17:15;28.57;;;24.23;;
4313;SDS011;2170;48.794;9.182;2023-04-21T05:19:44;27.10;;;23.47;;
4313;SDS011;2170;48.794;9.182;2023-04-21T05:22:17;30.07;;;23.00;;
4313;SDS011;2170;48.794;9.182;2023-04-21T05:24:45;28.90;;;23.80;;
4313;SDS011;2170;48.794;9.182;2023-04-21T05:27:14;31.07;;;24.37;;
4313;SDS011;2170;48.794;9.182;2023-04-21T05:29:42;30.53;;;25.47;;
4313;SDS011;2170;48.794;9.182;2023-04-21T05:32:09;32.43;;;26.00;;
4313;SDS011;2170;48.794;9.182;2023-04-21T05:34:37;30.70;;;25.60;;
4313;SDS011;2170;48.794;9.182;2023-04-21T05:37:06;31.77;;;25.40;;
4313;SDS011;2170;48.794;9.182;2023-04-21T05:39:34;34.03;;;26.07;;
4313;SDS011;2170;48.794;9.182;2023-04-21T05:42:02;31.57;;;25.70;;
4313;SDS011;2170;48.794;9.182;2023-04-21T05:44:31;30.93;;;24.40;;
4313;SDS011;2170;48.794;9.182;2023-04-21T05:47:01;34.23;;;26.33;;
4313;SDS011;2170;48.794;9.182;2023-04-21T05:49:39;31.73;;;24.87;;
4313;SDS011;2170;48.794;9.182;2023-04-21T05:52:14;31.27;;;26.00;;
4313;SDS011;2170;48.794;9.182;2023-04-21T05:54:43;29.53;;;26.30;;
4313;SDS011;2170;48.794;9.182;2023-04-21T05:57:17;29.67;;;24.20;;
4313;SDS011;2170;48.794;9.182;2023-04-21T05:59:47;34.03;;;26.83;;
4313;SDS011;2170;48.794;9.182;2023-04-21T06:02:14;35.83;;;27.13;;
4313;SDS011;2170;48.794;9.182;2023-04-21T06:04:44;38.40;;;29.07;;
4313;SDS011;2170;48.794;9.182;2023-04-21T06:07:15;33.93;;;27.43;;
4313;SDS011;2170;48.794;9.182;2023-04-21T06:09:49;33.23;;;27.07;;
4313;SDS011;2170;48.794;9.182;2023-04-21T06:12:17;36.67;;;29.20;;
4313;SDS011;2170;48.794;9.182;2023-04-21T06:14:47;39.40;;;30.13;;
4313;SDS011;2170;48.794;9.182;2023-04-21T06:17:22;39.57;;;29.20;;
4313;SDS011;2170;48.794;9.182;2023-04-21T06:19:53;34.00;;;27.20;;
4313;SDS011;2170;48.794;9.182;2023-04-21T06:22:26;37.00;;;28.03;;
4313;SDS011;2170;48.794;9.182;2023-04-21T06:24:57;37.37;;;28.77;;
4313;SDS011;2170;48.794;9.182;2023-04-21T06:27:25;32.30;;;27.10;;
4313;SDS011;2170;48.794;9.182;2023-04-21T06:29:55;38.03;;;29.40;;
4313;SDS011;2170;48.794;9.182;2023-04-21T06:32:25;38.53;;;27.37;;
4313;SDS011;2170;48.794;9.182;2023-04-21T06:34:53;34.13;;;27.73;;
4313;SDS011;2170;48.794;9.182;2023-04-21T06:37:21;36.83;;;28.20;;
4313;SDS011;2170;48.794;9.182;2023-04-21T06:39:51;39.47;;;28.73;;
4313;SDS011;2170;48.794;9.182;2023-04-21T06:42:27;34.60;;;27.03;;
4313;SDS011;2170;48.794;9.182;2023-04-21T06:45:09;34.43;;;27.43;;
4313;SDS011;2170;48.794;9.182;2023-04-21T06:50:30;31.93;;;26.40;;
4313;SDS011;2170;48.794;9.182;2023-04-21T06:53:02;32.77;;;26.57;;
4313;SDS011;2170;48.794;9.182;2023-04-21T06:55:43;35.40;;;26.27;;
4313;SDS011;2170;48.794;9.182;2023-04-21T06:58:26;36.23;;;28.57;;
4313;SDS011;2170;48.794;9.182;2023-04-21T07:01:01;31.33;;;25.50;;
4313;SDS011;2170;48.794;9.182;2023-04-21T07:03:35;32.53;;;26.10;;
4313;SDS011;2170;48.794;9.182;2023-04-21T07:06:05;31.10;;;26.60;;
4313;SDS011;2170;48.794;9.182;2023-04-21T07:08:34;32.03;;;25.87;;
4313;SDS011;2170;48.794;9.182;2023-04-21T07:11:09;32.03;;;25.90;;
4313;SDS011;2170;48.794;9.182;2023-04-21T07:13:37;34.20;;;26.30;;
4313;SDS011;2170;48.794;9.182;2023-04-21T07:16:10;33.00;;;25.67;;
4313;SDS011;2170;48.794;9.182;2023-04-21T07:18:51;32.40;;;26.00;;
4313;SDS011;2170;48.794;9.182;2023-04-21T07:21:39;32.67;;;26.93;;
4313;SDS011;2170;48.794;9.182;2023-04-21T07:24:13;28.60;;;24.20;;
4313;SDS011;2170;48.794;9.182;2023-04-21T07:26:44;29.70;;;24.03;;
4313;SDS011;2170;48.794;9.182;2023-04-21T07:29:12;30.27;;;25.50;;
4313;SDS011;2170;48.794;9.182;2023-04-21T07:31:45;31.57;;;25.90;;
4313;SDS011;2170;48.794;9.182;2023-04-21T07:34:13;29.43;;;23.20;;
4313;SDS011;2170;48.794;9.182;2023-04-21T07:36:41;25.10;;;21.40;;
4313;SDS011;2170;48.794;9.182;2023-04-21T07:39:10;22.80;;;20.30;;
4313;SDS011;2170;48.794;9.182;2023-04-21T07:41:39;23.13;;;20.60;;
4313;SDS011;2170;48.794;9.182;2023-04-21T07:44:06;23.83;;;21.17;;
4313;SDS011;2170;48.794;9.182;2023-04-21T07:46:34;24.83;;;22.13;;
4313;SDS011;2170;48.794;9.182;2023-04-21T07:49:06;24.60;;;20.93;;
4313;SDS011;2170;48.794;9.182;2023-04-21T07:51:36;25.83;;;22.57;;
4313;SDS011;2170;48.794;9.182;2023-04-21T07:54:07;23.57;;;20.30;;
4313;SDS011;2170;48.794;9.182;2023-04-21T07:56:35;22.00;;;19.60;;
4313;SDS011;2170;48.794;9.182;2023-04-21T07:59:07;23.60;;;19.70;;
4313;SDS011;2170;48.794;9.182;2023-04-21T08:01:36;22.87;;;20.47;;
4313;SDS011;2170;48.794;9.182;2023-04-21T08:04:04;21.83;;;19.50;;
4313;SDS011;2170;48.794;9.182;2023-04-21T08:06:35;22.57;;;19.63;;
4313;SDS011;2170;48.794;9.182;2023-04-21T08:09:05;21.87;;;18.40;;
4313;SDS011;2170;48.794;9.182;2023-04-21T08:11:35;20.40;;;18.17;;
4313;SDS011;2170;48.794;9.182;2023-04-21T08:14:12;19.57;;;17.40;;
4313;SDS011;2170;48.794;9.182;2023-04-21T08:16:45;19.53;;;16.33;;
4313;SDS011;2170;48.794;9.182;2023-04-21T08:19:16;17.70;;;15.97;;
4313;SDS011;2170;48.794;9.182;2023-04-21T08:21:49;17.90;;;16.10;;
4313;SDS011;2170;48.794;9.182;2023-04-21T08:24:17;18.33;;;16.37;;
4313;SDS011;2170;48.794;9.182;2023-04-21T08:29:57;18.27;;;16.23;;
4313;SDS011;2170;48.794;9.182;2023-04-21T08:32:34;16.97;;;15.27;;
4313;SDS011;2170;48.794;9.182;2023-04-21T08:35:03;18.20;;;16.40;;
4313;SDS011;2170;48.794;9.182;2023-04-21T08:37:33;17.53;;;15.83;;
4313;SDS011;2170;48.794;9.182;2023-04-21T08:40:12;17.57;;;15.87;;
4313;SDS011;2170;48.794;9.182;2023-04-21T08:42:40;16.10;;;14.60;;
4313;SDS011;2170;48.794;9.182;2023-04-21T08:45:09;15.13;;;13.83;;
4313;SDS011;2170;48.794;9.182;2023-04-21T08:47:39;15.33;;;13.83;;
4313;SDS011;2170;48.794;9.182;2023-04-21T08:50:11;14.50;;;13.00;;
4313;SDS011;2170;48.794;9.182;2023-04-21T08:52:40;14.97;;;13.30;;
4313;SDS011;2170;48.794;9.182;2023-04-21T08:55:08;14.27;;;12.77;;
4313;SDS011;2170;48.794;9.182;2023-04-21T08:57:40;15.47;;;13.97;;
4313;SDS011;2170;48.794;9.182;2023-04-21T09:00:12;15.50;;;14.00;;
4313;SDS011;2170;48.794;9.182;2023-04-21T09:05:30;15.03;;;13.60;;
4313;SDS011;2170;48.794;9.182;2023-04-21T09:08:10;14.63;;;13.23;;
4313;SDS011;2170;48.794;9.182;2023-04-21T09:10:44;13.80;;;12.60;;
4313;SDS011;2170;48.794;9.182;2023-04-21T09:13:15;14.37;;;12.97;;
4313;SDS011;2170;48.794;9.182;2023-04-21T09:15:52;14.23;;;12.93;;
4313;SDS011;2170;48.794;9.182;2023-04-21T09:18:23;13.80;;;12.30;;
4313;SDS011;2170;48.794;9.182;2023-04-21T09:21:04;14.27;;;12.87;;
4313;SDS011;2170;48.794;9.182;2023-04-21T09:26:24;14.47;;;13.07;;
4313;SDS011;2170;48.794;9.182;2023-04-21T09:28:52;13.03;;;11.83;;
4313;SDS011;2170;48.794;9.182;2023-04-21T09:31:21;14.87;;;13.30;;
4313;SDS011;2170;48.794;9.182;2023-04-21T09:33:51;13.83;;;12.63;;
4313;SDS011;2170;48.794;9.182;2023-04-21T09:36:20;12.47;;;11.33;;
4313;SDS011;2170;48.794;9.182;2023-04-21T09:38:57;14.83;;;13.30;;
4313;SDS011;2170;48.794;9.182;2023-04-21T09:41:27;13.00;;;11.80;;
4313;SDS011;2170;48.794;9.182;2023-04-21T09:43:55;12.33;;;11.23;;
4313;SDS011;2170;48.794;9.182;2023-04-21T09:46:25;13.40;;;12.13;;
4313;SDS011;2170;48.794;9.182;2023-04-21T09:49:00;13.10;;;11.90;;
4313;SDS011;2170;48.794;9.182;2023-04-21T09:51:31;12.07;;;10.93;;
4313;SDS011;2170;48.794;9.182;2023-04-21T09:53:59;11.93;;;10.83;;
4313;SDS011;2170;48.794;9.182;2023-04-21T09:56:31;12.57;;;11.47;;
4313;SDS011;2170;48.794;9.182;2023-04-21T09:59:00;10.77;;;9.87;;
4313;SDS011;2170;48.794;9.182;2023-04-21T10:01:30;11.23;;;10.23;;
4313;SDS011;2170;48.794;9.182;2023-04-21T10:03:59;11.70;;;10.70;;
4313;SDS011;2170;48.794;9.182;2023-04-21T10:06:31;11.17;;;10.17;;
4313;SDS011;2170;48.794;9.182;2023-04-21T10:09:00;10.93;;;9.97;;
4313;SDS011;2170;48.794;9.182;2023-04-21T10:11:32;9.63;;;8.73;;
4313;SDS011;2170;48.794;9.182;2023-04-21T10:14:07;9.83;;;9.03;;
4313;SDS011;2170;48.794;9.182;2023-04-21T10:16:35;12.20;;;9.07;;
4313;SDS011;2170;48.794;9.182;2023-04-21T10:19:10;11.80;;;10.70;;
4313;SDS011;2170;48.794;9.182;2023-04-21T10:21:56;12.30;;;11.20;;
4313;SDS011;2170;48.794;9.182;2023-04-21T10:24:27;11.90;;;10.77;;
4313;SDS011;2170;48.794;9.182;2023-04-21T10:27:02;12.07;;;11.07;;
4313;SDS011;2170;48.794;9.182;2023-04-21T10:29:31;13.10;;;12.00;;
4313;SDS011;2170;48.794;9.182;2023-04-21T10:32:01;10.93;;;10.03;;
4313;SDS011;2170;48.794;9.182;2023-04-21T10:34:33;17.03;;;15.50;;
4313;SDS011;2170;48.794;9.182;2023-04-21T10:37:08;11.53;;;10.53;;
4313;SDS011;2170;48.794;9.182;2023-04-21T10:39:41;11.33;;;10.33;;
4313;SDS011;2170;48.794;9.182;2023-04-21T10:45:16;11.70;;;10.70;;
4313;SDS011;2170;48.794;9.182;2023-04-21T10:47:45;10.30;;;9.50;;
4313;SDS011;2170;48.794;9.182;2023-04-21T10:50:18;11.20;;;10.20;;
4313;SDS011;2170;48.794;9.182;2023-04-21T10:52:57;10.60;;;9.70;;
4313;SDS011;2170;48.794;9.182;2023-04-21T10:55:26;11.90;;;10.03;;
4313;SDS011;2170;48.794;9.182;2023-04-21T10:57:54;11.53;;;10.50;;
4313;SDS011;2170;48.794;9.182;2023-04-21T11:03:23;9.80;;;9.00;;
4313;SDS011;2170;48.794;9.182;2023-04-21T11:06:08;10.60;;;9.53;;
4313;SDS011;2170;48.794;9.182;2023-04-21T11:08:59;10.60;;;9.80;;
4313;SDS011;2170;48.794;9.182;2023-04-21T11:11:38;8.90;;;8.20;;
4313;SDS011;2170;48.794;9.182;2023-04-21T11:14:07;9.90;;;9.20;;
4313;SDS011;2170;48.794;9.182;2023-04-21T11:16:40;8.97;;;8.27;;
4313;SDS011;2170;48.794;9.182;2023-04-21T11:19:10;8.80;;;8.10;;
4313;SDS011;2170;48.794;9.182;2023-04-21T11:21:41;9.70;;;8.97;;
4313;SDS011;2170;48.794;9.182;2023-04-21T11:24:09;9.67;;;8.90;;
4313;SDS011;2170;48.794;9.182;2023-04-21T11:26:37;9.30;;;8.40;;
4313;SDS011;2170;48.794;9.182;2023-04-21T11:29:08;8.73;;;8.03;;
4313;SDS011;2170;48.794;9.182;2023-04-21T11:31:42;8.10;;;7.50;;
4313;SDS011;2170;48.794;9.182;2023-04-21T11:34:13;13.40;;;12.30;;
4313;SDS011;2170;48.794;9.182;2023-04-21T11:36:41;9.30;;;8.50;;
4313;SDS011;2170;48.794;9.182;2023-04-21T11:39:10;9.07;;;8.27;;
4313;SDS011;2170;48.794;9.182;2023-04-21T11:41:41;7.93;;;7.33;;
4313;SDS011;2170;48.794;9.182;2023-04-21T11:44:09;8.40;;;7.70;;
4313;SDS011;2170;48.794;9.182;2023-04-21T11:46:37;8.43;;;7.80;;
4313;SDS011;2170;48.794;9.182;2023-04-21T11:49:10;8.37;;;7.67;;
4313;SDS011;2170;48.794;9.182;2023-04-21T11:51:40;8.87;;;8.03;;
4313;SDS011;2170;48.794;9.182;2023-04-21T11:54:08;8.33;;;7.67;;
4313;SDS011;2170;48.794;9.182;2023-04-21T11:56:36;8.20;;;7.60;;
4313;SDS011;2170;48.794;9.182;2023-04-21T11:59:07;8.17;;;7.57;;
4313;SDS011;2170;48.794;9.182;2023-04-21T12:01:41;9.93;;;9.03;;
4313;SDS011;2170;48.794;9.182;2023-04-21T12:04:12;9.83;;;7.70;;
4313;SDS011;2170;48.794;9.182;2023-04-21T12:06:42;8.60;;;7.83;;
4313;SDS011;2170;48.794;9.182;2023-04-21T12:09:15;8.90;;;8.20;;
4313;SDS011;2170;48.794;9.182;2023-04-21T12:11:45;8.60;;;8.00;;
4313;SDS011;2170;48.794;9.182;2023-04-21T12:14:14;7.33;;;6.70;;
4313;SDS011;2170;48.794;9.182;2023-04-21T12:16:42;9.43;;;8.73;;
4313;SDS011;2170;48.794;9.182;2023-04-21T12:19:09;8.30;;;7.50;;
4313;SDS011;2170;48.794;9.182;2023-04-21T12:21:36;7.83;;;7.30;;
4313;SDS011;2170;48.794;9.182;2023-04-21T12:24:06;7.00;;;6.50;;
4313;SDS011;2170;48.794;9.182;2023-04-21T12:26:33;7.97;;;7.27;;
4313;SDS011;2170;48.794;9.182;2023-04-21T12:29:03;6.47;;;6.00;;
4313;SDS011;2170;48.794;9.182;2023-04-21T12:31:35;7.43;;;6.87;;
4313;SDS011;2170;48.794;9.182;2023-04-21T12:34:05;6.13;;;5.73;;
4313;SDS011;2170;48.794;9.182;2023-04-21T12:36:33;6.40;;;5.90;;
4313;SDS011;2170;48.794;9.182;2023-04-21T12:39:01;6.63;;;6.13;;
4313;SDS011;2170;48.794;9.182;2023-04-21T12:41:31;6.10;;;5.70;;
4313;SDS011;2170;48.794;9.182;2023-04-21T12:44:00;5.67;;;5.27;;
4313;SDS011;2170;48.794;9.182;2023-04-21T12:46:30;5.93;;;5.53;;
4313;SDS011;2170;48.794;9.182;2023-04-21T12:48:59;6.23;;;5.63;;
4313;SDS011;2170;48.794;9.182;2023-04-21T12:51:28;5.37;;;4.97;;
4313;SDS011;2170;48.794;9.182;2023-04-21T12:53:56;5.63;;;5.27;;
4313;SDS011;2170;48.794;9.182;2023-04-21T12:56:26;4.73;;;4.43;;
4313;SDS011;2170;48.794;9.182;2023-04-21T12:58:56;6.10;;;5.50;;
4313;SDS011;2170;48.794;9.182;2023-04-21T13:01:26;5.10;;;4.70;;
4313;SDS011;2170;48.794;9.182;2023-04-21T13:03:54;5.73;;;5.27;;
4313;SDS011;2170;48.794;9.182;2023-04-21T13:06:21;5.00;;;4.70;;
4313;SDS011;2170;48.794;9.182;2023-04-21T13:08:49;4.53;;;4.23;;
4313;SDS011;2170;48.794;9.182;2023-04-21T13:11:17;4.87;;;4.57;;
4313;SDS011;2170;48.794;9.182;2023-04-21T13:13:54;5.73;;;5.23;;
4313;SDS011;2170;48.794;9.182;2023-04-21T13:16:24;5.90;;;4.80;;
4313;SDS011;2170;48.794;9.182;2023-04-21T13:18:51;5.33;;;4.93;;
4313;SDS011;2170;48.794;9.182;2023-04-21T13:21:19;4.53;;;4.27;;
4313;SDS011;2170;48.794;9.182;2023-04-21T13:23:46;4.87;;;4.57;;
4313;SDS011;2170;48.794;9.182;2023-04-21T13:26:14;4.53;;;4.23;;
4313;SDS011;2170;48.794;9.182;2023-04-21T13:28:42;4.50;;;4.10;;
4313;SDS011;2170;48.794;9.182;2023-04-21T13:31:09;5.10;;;4.80;;
4313;SDS011;2170;48.794;9.182;2023-04-21T13:33:39;4.90;;;4.50;;
4313;SDS011;2170;48.794;9.182;2023-04-21T13:36:07;5.00;;;4.60;;
4313;SDS011;2170;48.794;9.182;2023-04-21T13:38:37;3.97;;;3.70;;
4313;SDS011;2170;48.794;9.182;2023-04-21T13:41:05;4.87;;;4.57;;
4313;SDS011;2170;48.794;9.182;2023-04-21T13:43:32;5.20;;;4.90;;
4313;SDS011;2170;48.794;9.182;2023-04-21T13:46:00;4.53;;;4.23;;
4313;SDS011;2170;48.794;9.182;2023-04-21T13:48:27;4.70;;;4.40;;
4313;SDS011;2170;48.794;9.182;2023-04-21T13:50:56;4.43;;;4.10;;
4313;SDS011;2170;48.794;9.182;2023-04-21T13:53:23;4.87;;;4.57;;
4313;SDS011;2170;48.794;9.182;2023-04-21T13:55:51;4.43;;;4.00;;
4313;SDS011;2170;48.794;9.182;2023-04-21T13:58:21;4.77;;;4.47;;
4313;SDS011;2170;48.794;9.182;2023-04-21T14:00:48;3.97;;;3.67;;
4313;SDS011;2170;48.794;9.182;2023-04-21T14:03:16;3.53;;;3.33;;
4313;SDS011;2170;48.794;9.182;2023-04-21T14:05:43;3.93;;;3.63;;
4313;SDS011;2170;48.794;9.182;2023-04-21T14:08:12;3.97;;;3.77;;
4313;SDS011;2170;48.794;9.182;2023-04-21T14:10:39;3.63;;;3.43;;
4313;SDS011;2170;48.794;9.182;2023-04-21T14:13:06;3.90;;;3.70;;
4313;SDS011;2170;48.794;9.182;2023-04-21T14:15:34;4.97;;;4.57;;
4313;SDS011;2170;48.794;9.182;2023-04-21T14:18:01;3.57;;;3.37;;
4313;SDS011;2170;48.794;9.182;2023-04-21T14:20:29;4.27;;;3.97;;
4313;SDS011;2170;48.794;9.182;2023-04-21T14:22:56;4.50;;;4.20;;
4313;SDS011;2170;48.794;9.182;2023-04-21T14:25:25;3.73;;;3.43;;
4313;SDS011;2170;48.794;9.182;2023-04-21T14:27:53;3.70;;;3.50;;
4313;SDS011;2170;48.794;9.182;2023-04-21T14:30:20;4.60;;;4.30;;
4313;SDS011;2170;48.794;9.182;2023-04-21T14:32:48;3.10;;;2.90;;
4313;SDS011;2170;48.794;9.182;2023-04-21T14:35:15;4.43;;;3.37;;
4313;SDS011;2170;48.794;9.182;2023-04-21T14:37:43;3.70;;;3.47;;
4313;SDS011;2170;48.794;9.182;2023-04-21T14:40:10;2.90;;;2.80;;
4313;SDS011;2170;48.794;9.182;2023-04-21T14:42:39;3.37;;;3.17;;
4313;SDS011;2170;48.794;9.182;2023-04-21T14:45:07;3.00;;;2.80;;
4313;SDS011;2170;48.794;9.182;2023-04-21T14:47:35;3.17;;;2.97;;
4313;SDS011;2170;48.794;9.182;2023-04-21T14:50:03;3.77;;;3.50;;
4313;SDS011;2170;48.794;9.182;2023-04-21T14:52:31;3.90;;;3.70;;
4313;SDS011;2170;48.794;9.182;2023-04-21T14:54:58;3.23;;;3.07;;
4313;SDS011;2170;48.794;9.182;2023-04-21T14:57:27;3.80;;;3.50;;
4313;SDS011;2170;48.794;9.182;2023-04-21T14:59:56;2.90;;;2.70;;
4313;SDS011;2170;48.794;9.182;2023-04-21T15:02:24;4.20;;;3.90;;
4313;SDS011;2170;48.794;9.182;2023-04-21T15:04:51;2.27;;;2.10;;
4313;SDS011;2170;48.794;9.182;2023-04-21T15:07:19;2.43;;;2.33;;
4313;SDS011;2170;48.794;9.182;2023-04-21T15:09:47;2.70;;;2.60;;
4313;SDS011;2170;48.794;9.182;2023-04-21T15:12:14;2.50;;;2.30;;
4313;SDS011;2170;48.794;9.182;2023-04-21T15:14:42;2.73;;;2.37;;
4313;SDS011;2170;48.794;9.182;2023-04-21T15:17:12;3.07;;;2.80;;
4313;SDS011;2170;48.794;9.182;2023-04-21T15:19:39;2.77;;;2.50;;
4313;SDS011;2170;48.794;9.182;2023-04-21T15:22:07;3.07;;;2.87;;
4313;SDS011;2170;48.794;9.182;2023-04-21T15:24:36;2.57;;;2.40;;
4313;SDS011;2170;48.794;9.182;2023-04-21T15:27:03;2.77;;;2.57;;
4313;SDS011;2170;48.794;9.182;2023-04-21T15:29:31;2.63;;;2.53;;
4313;SDS011;2170;48.794;9.182;2023-04-21T15:31:59;16.40;;;15.10;;
4313;SDS011;2170;48.794;9.182;2023-04-21T15:34:28;3.10;;;2.90;;
4313;SDS011;2170;48.794;9.182;2023-04-21T15:36:56;2.90;;;2.70;;
4313;SDS011;2170;48.794;9.182;2023-04-21T15:39:23;2.93;;;2.73;;
4313;SDS011;2170;48.794;9.182;2023-04-21T15:41:54;2.80;;;2.60;;
4313;SDS011;2170;48.794;9.182;2023-04-21T15:44:25;2.30;;;2.20;;
4313;SDS011;2170;48.794;9.182;2023-04-21T15:46:56;5.57;;;2.77;;
4313;SDS011;2170;48.794;9.182;2023-04-21T15:49:25;2.50;;;2.40;;
4313;SDS011;2170;48.794;9.182;2023-04-21T15:51:54;2.50;;;2.40;;
4313;SDS011;2170;48.794;9.182;2023-04-21T15:54:21;3.10;;;2.90;;
4313;SDS011;2170;48.794;9.182;2023-04-21T15:56:50;2.43;;;2.33;;
4313;SDS011;2170;48.794;9.182;2023-04-21T15:59:18;3.30;;;3.00;;
4313;SDS011;2170;48.794;9.182;2023-04-21T16:01:45;3.17;;;2.70;;
4313;SDS011;2170;48.794;9.182;2023-04-21T16:04:12;2.93;;;2.83;;
4313;SDS011;2170;48.794;9.182;2023-04-21T16:06:40;2.63;;;2.40;;
4313;SDS011;2170;48.794;9.182;2023-04-21T16:09:09;3.40;;;3.20;;